sensor_id;sensor_type;location;lat;lon;timestamp;temperature;humidity
13606;DHT22;6874;52.084;5.090;2023-09-08T00:01:08;21.60;99.00
13606;DHT22;6874;52.084;5.090;2023-09-08T00:03:34;21.70;99.00
13606;DHT22;6874;52.084;5.090;2023-09-08T00:06:00;21.60;98.90
13606;DHT22;6874;52.084;5.090;2023-09-08T00:08:25;21.50;98.90
13606;DHT22;6874;52.084;5.090;2023-09-08T00:10:51;21.50;99.00
13606;DHT22;6874;52.084;5.090;2023-09-08T00:13:16;21.50;99.00
13606;DHT22;6874;52.084;5.090;2023-09-08T00:15:42;21.50;99.00
13606;DHT22;6874;52.084;5.090;2023-09-08T00:18:07;21.40;98.90
13606;DHT22;6874;52.084;5.090;2023-09-08T00:20:33;21.40;98.90
13606;DHT22;6874;52.084;5.090;2023-09-08T00:23:00;21.40;98.90
13606;DHT22;6874;52.084;5.090;2023-09-08T00:25:25;21.40;99.30
13606;DHT22;6874;52.084;5.090;2023-09-08T00:27:51;21.40;98.90
13606;DHT22;6874;52.084;5.090;2023-09-08T00:30:16;21.30;98.90
13606;DHT22;6874;52.084;5.090;2023-09-08T00:32:42;21.30;98.90
13606;DHT22;6874;52.084;5.090;2023-09-08T00:35:11;21.30;98.90
13606;DHT22;6874;52.084;5.090;2023-09-08T00:37:36;21.30;98.90
13606;DHT22;6874;52.084;5.090;2023-09-08T00:40:02;21.20;98.90
13606;DHT22;6874;52.084;5.090;2023-09-08T00:42:27;21.20;98.80
13606;DHT22;6874;52.084;5.090;2023-09-08T00:44:53;21.20;98.90
13606;DHT22;6874;52.084;5.090;2023-09-08T00:47:19;21.20;98.90
13606;DHT22;6874;52.084;5.090;2023-09-08T00:49:44;21.10;98.80
13606;DHT22;6874;52.084;5.090;2023-09-08T00:52:11;21.10;98.80
13606;DHT22;6874;52.084;5.090;2023-09-08T00:54:37;21.10;98.90
13606;DHT22;6874;52.084;5.090;2023-09-08T00:57:02;21.10;98.80
13606;DHT22;6874;52.084;5.090;2023-09-08T00:59:32;21.10;98.80
13606;DHT22;6874;52.084;5.090;2023-09-08T01:01:58;21.00;98.90
13606;DHT22;6874;52.084;5.090;2023-09-08T01:04:24;21.00;98.80
13606;DHT22;6874;52.084;5.090;2023-09-08T01:06:50;21.00;98.90
13606;DHT22;6874;52.084;5.090;2023-09-08T01:09:16;21.00;98.90
13606;DHT22;6874;52.084;5.090;2023-09-08T01:11:43;21.00;98.90
13606;DHT22;6874;52.084;5.090;2023-09-08T01:14:09;20.90;98.80
13606;DHT22;6874;52.084;5.090;2023-09-08T01:16:36;20.90;98.80
13606;DHT22;6874;52.084;5.090;2023-09-08T01:19:03;20.90;98.90
13606;DHT22;6874;52.084;5.090;2023-09-08T01:22:00;20.90;98.90
13606;DHT22;6874;52.084;5.090;2023-09-08T01:26:55;20.80;98.80
13606;DHT22;6874;52.084;5.090;2023-09-08T01:29:21;20.80;98.80
13606;DHT22;6874;52.084;5.090;2023-09-08T01:31:50;20.80;98.80
13606;DHT22;6874;52.084;5.090;2023-09-08T01:34:16;20.80;98.90
13606;DHT22;6874;52.084;5.090;2023-09-08T01:36:42;20.80;98.90
13606;DHT22;6874;52.084;5.090;2023-09-08T01:39:08;20.70;98.80
13606;DHT22;6874;52.084;5.090;2023-09-08T01:41:33;20.70;98.90
13606;DHT22;6874;52.084;5.090;2023-09-08T01:44:00;20.60;98.80
13606;DHT22;6874;52.084;5.090;2023-09-08T01:46:25;20.60;98.90
13606;DHT22;6874;52.084;5.090;2023-09-08T01:48:51;20.60;98.90
13606;DHT22;6874;52.084;5.090;2023-09-08T01:51:16;20.60;98.90
13606;DHT22;6874;52.084;5.090;2023-09-08T01:53:42;20.60;98.90
13606;DHT22;6874;52.084;5.090;2023-09-08T01:56:07;20.60;98.90
13606;DHT22;6874;52.084;5.090;2023-09-08T01:58:33;20.50;98.90
13606;DHT22;6874;52.084;5.090;2023-09-08T02:00:59;20.50;98.90
13606;DHT22;6874;52.084;5.090;2023-09-08T02:03:31;20.50;98.80
13606;DHT22;6874;52.084;5.090;2023-09-08T02:05:57;20.50;98.90
13606;DHT22;6874;52.084;5.090;2023-09-08T02:08:22;20.50;98.90
13606;DHT22;6874;52.084;5.090;2023-09-08T02:10:48;20.40;98.80
13606;DHT22;6874;52.084;5.090;2023-09-08T02:13:13;20.40;98.80
13606;DHT22;6874;52.084;5.090;2023-09-08T02:15:39;20.50;99.00
13606;DHT22;6874;52.084;5.090;2023-09-08T02:18:06;20.40;98.90
13606;DHT22;6874;52.084;5.090;2023-09-08T02:20:32;20.40;98.90
13606;DHT22;6874;52.084;5.090;2023-09-08T02:23:03;20.30;98.90
13606;DHT22;6874;52.084;5.090;2023-09-08T02:25:29;20.30;98.90
13606;DHT22;6874;52.084;5.090;2023-09-08T02:27:54;20.20;98.80
13606;DHT22;6874;52.084;5.090;2023-09-08T02:30:20;20.30;98.90
13606;DHT22;6874;52.084;5.090;2023-09-08T02:32:45;20.20;98.90
13606;DHT22;6874;52.084;5.090;2023-09-08T02:35:11;20.20;99.00
13606;DHT22;6874;52.084;5.090;2023-09-08T02:37:36;20.20;98.90
13606;DHT22;6874;52.084;5.090;2023-09-08T02:40:02;20.20;98.90
13606;DHT22;6874;52.084;5.090;2023-09-08T02:42:29;20.10;98.80
13606;DHT22;6874;52.084;5.090;2023-09-08T02:44:54;20.10;98.90
13606;DHT22;6874;52.084;5.090;2023-09-08T02:47:20;20.10;98.90
13606;DHT22;6874;52.084;5.090;2023-09-08T02:49:45;20.10;98.90
13606;DHT22;6874;52.084;5.090;2023-09-08T02:52:11;20.10;98.90
13606;DHT22;6874;52.084;5.090;2023-09-08T02:54:36;20.10;98.90
13606;DHT22;6874;52.084;5.090;2023-09-08T02:57:02;20.00;98.80
13606;DHT22;6874;52.084;5.090;2023-09-08T02:59:28;20.00;98.80
13606;DHT22;6874;52.084;5.090;2023-09-08T03:01:53;20.00;98.90
13606;DHT22;6874;52.084;5.090;2023-09-08T03:04:19;20.00;98.90
13606;DHT22;6874;52.084;5.090;2023-09-08T03:06:45;20.00;98.90
13606;DHT22;6874;52.084;5.090;2023-09-08T03:09:10;19.90;98.80
13606;DHT22;6874;52.084;5.090;2023-09-08T03:11:36;19.90;99.20
13606;DHT22;6874;52.084;5.090;2023-09-08T03:14:03;19.90;98.80
13606;DHT22;6874;52.084;5.090;2023-09-08T03:16:28;19.90;98.90
13606;DHT22;6874;52.084;5.090;2023-09-08T03:18:54;19.90;98.80
13606;DHT22;6874;52.084;5.090;2023-09-08T03:21:19;19.80;98.90
13606;DHT22;6874;52.084;5.090;2023-09-08T03:23:45;19.80;98.80
13606;DHT22;6874;52.084;5.090;2023-09-08T03:26:11;19.80;98.70
13606;DHT22;6874;52.084;5.090;2023-09-08T03:28:37;19.80;98.90
13606;DHT22;6874;52.084;5.090;2023-09-08T03:31:04;19.70;98.70
13606;DHT22;6874;52.084;5.090;2023-09-08T03:33:30;19.70;98.80
13606;DHT22;6874;52.084;5.090;2023-09-08T03:35:55;19.70;98.80
13606;DHT22;6874;52.084;5.090;2023-09-08T03:38:22;19.70;98.80
13606;DHT22;6874;52.084;5.090;2023-09-08T03:40:47;19.70;98.80
13606;DHT22;6874;52.084;5.090;2023-09-08T03:43:13;19.60;98.80
13606;DHT22;6874;52.084;5.090;2023-09-08T03:45:39;19.70;98.80
13606;DHT22;6874;52.084;5.090;2023-09-08T03:48:05;19.70;98.90
13606;DHT22;6874;52.084;5.090;2023-09-08T03:50:31;19.60;98.80
13606;DHT22;6874;52.084;5.090;2023-09-08T03:52:56;19.60;98.80
13606;DHT22;6874;52.084;5.090;2023-09-08T03:55:22;19.60;98.90
13606;DHT22;6874;52.084;5.090;2023-09-08T03:57:48;19.60;98.90
13606;DHT22;6874;52.084;5.090;2023-09-08T04:00:14;19.60;98.90
13606;DHT22;6874;52.084;5.090;2023-09-08T04:02:45;19.50;98.90
13606;DHT22;6874;52.084;5.090;2023-09-08T04:05:11;19.50;98.90
13606;DHT22;6874;52.084;5.090;2023-09-08T04:07:37;19.50;99.00
13606;DHT22;6874;52.084;5.090;2023-09-08T04:10:03;19.50;98.90
13606;DHT22;6874;52.084;5.090;2023-09-08T04:12:28;19.50;98.90
13606;DHT22;6874;52.084;5.090;2023-09-08T04:14:54;19.40;98.90
13606;DHT22;6874;52.084;5.090;2023-09-08T04:17:20;19.40;98.90
13606;DHT22;6874;52.084;5.090;2023-09-08T04:19:45;19.40;98.90
13606;DHT22;6874;52.084;5.090;2023-09-08T04:22:11;19.40;98.90
13606;DHT22;6874;52.084;5.090;2023-09-08T04:24:37;19.40;99.00
13606;DHT22;6874;52.084;5.090;2023-09-08T04:27:03;19.40;98.90
13606;DHT22;6874;52.084;5.090;2023-09-08T04:29:29;19.40;99.00
13606;DHT22;6874;52.084;5.090;2023-09-08T04:31:54;19.30;98.80
13606;DHT22;6874;52.084;5.090;2023-09-08T04:34:20;19.30;99.20
13606;DHT22;6874;52.084;5.090;2023-09-08T04:36:45;19.30;98.90
13606;DHT22;6874;52.084;5.090;2023-09-08T04:39:11;19.30;98.90
13606;DHT22;6874;52.084;5.090;2023-09-08T04:41:37;19.30;98.80
13606;DHT22;6874;52.084;5.090;2023-09-08T04:44:03;19.30;99.00
13606;DHT22;6874;52.084;5.090;2023-09-08T04:46:29;19.20;98.90
13606;DHT22;6874;52.084;5.090;2023-09-08T04:48:55;19.20;98.80
13606;DHT22;6874;52.084;5.090;2023-09-08T04:51:20;19.20;98.90
13606;DHT22;6874;52.084;5.090;2023-09-08T04:53:46;19.20;98.90
13606;DHT22;6874;52.084;5.090;2023-09-08T04:56:13;19.20;98.90
13606;DHT22;6874;52.084;5.090;2023-09-08T04:58:38;19.20;98.90
13606;DHT22;6874;52.084;5.090;2023-09-08T05:01:04;19.20;98.90
13606;DHT22;6874;52.084;5.090;2023-09-08T05:03:31;19.10;98.90
13606;DHT22;6874;52.084;5.090;2023-09-08T05:05:56;19.10;98.90
13606;DHT22;6874;52.084;5.090;2023-09-08T05:08:22;19.10;98.80
13606;DHT22;6874;52.084;5.090;2023-09-08T05:10:47;19.10;98.80
13606;DHT22;6874;52.084;5.090;2023-09-08T05:13:13;19.10;98.80
13606;DHT22;6874;52.084;5.090;2023-09-08T05:15:39;19.00;98.90
13606;DHT22;6874;52.084;5.090;2023-09-08T05:18:07;19.10;99.00
13606;DHT22;6874;52.084;5.090;2023-09-08T05:20:33;19.00;98.90
13606;DHT22;6874;52.084;5.090;2023-09-08T05:22:58;19.00;98.90
13606;DHT22;6874;52.084;5.090;2023-09-08T05:25:24;19.00;98.90
13606;DHT22;6874;52.084;5.090;2023-09-08T05:27:50;18.90;98.90
13606;DHT22;6874;52.084;5.090;2023-09-08T05:30:15;19.00;99.00
13606;DHT22;6874;52.084;5.090;2023-09-08T05:32:41;19.00;98.90
13606;DHT22;6874;52.084;5.090;2023-09-08T05:35:06;18.90;98.90
13606;DHT22;6874;52.084;5.090;2023-09-08T05:37:32;19.00;98.90
13606;DHT22;6874;52.084;5.090;2023-09-08T05:39:57;19.00;98.90
13606;DHT22;6874;52.084;5.090;2023-09-08T05:42:23;19.00;98.90
13606;DHT22;6874;52.084;5.090;2023-09-08T05:44:48;18.90;98.90
13606;DHT22;6874;52.084;5.090;2023-09-08T05:47:14;18.90;98.90
13606;DHT22;6874;52.084;5.090;2023-09-08T05:49:40;18.90;98.90
13606;DHT22;6874;52.084;5.090;2023-09-08T05:52:05;18.90;98.90
13606;DHT22;6874;52.084;5.090;2023-09-08T05:54:31;18.90;98.90
13606;DHT22;6874;52.084;5.090;2023-09-08T05:56:57;18.90;98.90
13606;DHT22;6874;52.084;5.090;2023-09-08T05:59:23;18.80;98.80
13606;DHT22;6874;52.084;5.090;2023-09-08T06:01:48;18.90;98.90
13606;DHT22;6874;52.084;5.090;2023-09-08T06:04:14;18.90;98.90
13606;DHT22;6874;52.084;5.090;2023-09-08T06:06:39;18.90;98.90
13606;DHT22;6874;52.084;5.090;2023-09-08T06:09:05;18.90;98.90
13606;DHT22;6874;52.084;5.090;2023-09-08T06:11:33;18.90;99.10
13606;DHT22;6874;52.084;5.090;2023-09-08T06:13:58;18.80;98.90
13606;DHT22;6874;52.084;5.090;2023-09-08T06:16:25;18.80;98.80
13606;DHT22;6874;52.084;5.090;2023-09-08T06:18:51;18.80;98.80
13606;DHT22;6874;52.084;5.090;2023-09-08T06:21:16;18.80;98.90
13606;DHT22;6874;52.084;5.090;2023-09-08T06:23:42;18.80;98.80
13606;DHT22;6874;52.084;5.090;2023-09-08T06:26:07;18.80;98.90
13606;DHT22;6874;52.084;5.090;2023-09-08T06:28:33;18.80;98.80
13606;DHT22;6874;52.084;5.090;2023-09-08T06:30:59;18.80;98.80
13606;DHT22;6874;52.084;5.090;2023-09-08T06:33:24;18.80;98.80
13606;DHT22;6874;52.084;5.090;2023-09-08T06:35:50;18.80;98.80
13606;DHT22;6874;52.084;5.090;2023-09-08T06:38:16;18.80;98.80
13606;DHT22;6874;52.084;5.090;2023-09-08T06:40:42;18.80;98.80
13606;DHT22;6874;52.084;5.090;2023-09-08T06:43:07;18.80;98.80
13606;DHT22;6874;52.084;5.090;2023-09-08T06:45:33;18.90;98.90
13606;DHT22;6874;52.084;5.090;2023-09-08T06:47:59;18.80;98.90
13606;DHT22;6874;52.084;5.090;2023-09-08T06:50:25;18.80;98.80
13606;DHT22;6874;52.084;5.090;2023-09-08T06:52:51;18.80;98.80
13606;DHT22;6874;52.084;5.090;2023-09-08T06:55:17;18.80;98.80
13606;DHT22;6874;52.084;5.090;2023-09-08T06:57:43;18.80;98.90
13606;DHT22;6874;52.084;5.090;2023-09-08T07:00:10;18.80;98.90
13606;DHT22;6874;52.084;5.090;2023-09-08T07:02:40;18.80;98.90
13606;DHT22;6874;52.084;5.090;2023-09-08T07:05:06;18.80;99.30
13606;DHT22;6874;52.084;5.090;2023-09-08T07:07:35;18.90;98.90
13606;DHT22;6874;52.084;5.090;2023-09-08T07:10:01;18.80;98.90
13606;DHT22;6874;52.084;5.090;2023-09-08T07:12:27;18.80;98.90
13606;DHT22;6874;52.084;5.090;2023-09-08T07:14:53;18.90;99.30
13606;DHT22;6874;52.084;5.090;2023-09-08T07:17:18;18.80;98.80
13606;DHT22;6874;52.084;5.090;2023-09-08T07:19:44;18.90;99.00
13606;DHT22;6874;52.084;5.090;2023-09-08T07:22:09;18.80;98.90
13606;DHT22;6874;52.084;5.090;2023-09-08T07:24:35;18.80;99.00
13606;DHT22;6874;52.084;5.090;2023-09-08T07:27:01;18.90;99.10
13606;DHT22;6874;52.084;5.090;2023-09-08T07:29:27;18.90;99.00
13606;DHT22;6874;52.084;5.090;2023-09-08T07:31:53;18.90;99.00
13606;DHT22;6874;52.084;5.090;2023-09-08T07:34:19;18.90;99.00
13606;DHT22;6874;52.084;5.090;2023-09-08T07:36:44;19.10;99.20
13606;DHT22;6874;52.084;5.090;2023-09-08T07:39:10;18.90;99.20
13606;DHT22;6874;52.084;5.090;2023-09-08T07:41:35;19.00;99.10
13606;DHT22;6874;52.084;5.090;2023-09-08T07:44:01;19.00;99.40
13606;DHT22;6874;52.084;5.090;2023-09-08T07:46:27;19.00;99.30
13606;DHT22;6874;52.084;5.090;2023-09-08T07:48:53;19.10;99.70
13606;DHT22;6874;52.084;5.090;2023-09-08T07:51:19;19.10;99.90
13606;DHT22;6874;52.084;5.090;2023-09-08T07:53:44;19.10;99.90
13606;DHT22;6874;52.084;5.090;2023-09-08T07:56:10;19.10;99.90
13606;DHT22;6874;52.084;5.090;2023-09-08T07:58:36;19.00;99.90
13606;DHT22;6874;52.084;5.090;2023-09-08T08:01:02;19.20;99.90
13606;DHT22;6874;52.084;5.090;2023-09-08T08:03:27;19.20;99.90
13606;DHT22;6874;52.084;5.090;2023-09-08T08:05:53;19.20;99.90
13606;DHT22;6874;52.084;5.090;2023-09-08T08:08:18;19.20;99.90
13606;DHT22;6874;52.084;5.090;2023-09-08T08:10:44;19.20;99.90
13606;DHT22;6874;52.084;5.090;2023-09-08T08:13:09;19.30;99.90
13606;DHT22;6874;52.084;5.090;2023-09-08T08:15:36;19.30;99.90
13606;DHT22;6874;52.084;5.090;2023-09-08T08:18:06;19.30;99.90
13606;DHT22;6874;52.084;5.090;2023-09-08T08:20:32;19.30;99.90
13606;DHT22;6874;52.084;5.090;2023-09-08T08:23:03;19.40;99.90
13606;DHT22;6874;52.084;5.090;2023-09-08T08:25:29;19.40;99.90
13606;DHT22;6874;52.084;5.090;2023-09-08T08:27:55;19.40;99.90
13606;DHT22;6874;52.084;5.090;2023-09-08T08:30:22;19.40;99.90
13606;DHT22;6874;52.084;5.090;2023-09-08T08:32:47;19.50;99.90
13606;DHT22;6874;52.084;5.090;2023-09-08T08:35:13;19.50;99.90
13606;DHT22;6874;52.084;5.090;2023-09-08T08:37:40;19.50;99.90
13606;DHT22;6874;52.084;5.090;2023-09-08T08:40:07;19.60;99.90
13606;DHT22;6874;52.084;5.090;2023-09-08T08:42:34;19.60;99.90
13606;DHT22;6874;52.084;5.090;2023-09-08T08:45:00;19.60;99.90
13606;DHT22;6874;52.084;5.090;2023-09-08T08:47:27;19.70;99.90
13606;DHT22;6874;52.084;5.090;2023-09-08T08:49:56;19.70;99.90
13606;DHT22;6874;52.084;5.090;2023-09-08T08:52:25;19.70;99.90
13606;DHT22;6874;52.084;5.090;2023-09-08T08:54:51;19.80;99.90
13606;DHT22;6874;52.084;5.090;2023-09-08T08:57:16;19.80;99.90
13606;DHT22;6874;52.084;5.090;2023-09-08T08:59:43;19.80;99.90
13606;DHT22;6874;52.084;5.090;2023-09-08T09:02:11;19.90;99.90
13606;DHT22;6874;52.084;5.090;2023-09-08T09:04:37;20.00;99.90
13606;DHT22;6874;52.084;5.090;2023-09-08T09:07:05;20.00;99.90
13606;DHT22;6874;52.084;5.090;2023-09-08T09:09:31;20.00;99.90
13606;DHT22;6874;52.084;5.090;2023-09-08T09:11:57;20.10;99.90
13606;DHT22;6874;52.084;5.090;2023-09-08T09:14:22;20.10;99.90
13606;DHT22;6874;52.084;5.090;2023-09-08T09:16:49;20.20;99.90
13606;DHT22;6874;52.084;5.090;2023-09-08T09:19:19;20.20;99.90
13606;DHT22;6874;52.084;5.090;2023-09-08T09:21:51;20.30;99.90
13606;DHT22;6874;52.084;5.090;2023-09-08T09:24:37;20.40;99.90
13606;DHT22;6874;52.084;5.090;2023-09-08T09:27:04;20.40;99.90
13606;DHT22;6874;52.084;5.090;2023-09-08T09:29:31;20.50;99.90
13606;DHT22;6874;52.084;5.090;2023-09-08T09:32:04;20.60;99.90
13606;DHT22;6874;52.084;5.090;2023-09-08T09:34:31;20.60;99.90
13606;DHT22;6874;52.084;5.090;2023-09-08T09:36:57;20.70;99.90
13606;DHT22;6874;52.084;5.090;2023-09-08T09:39:24;20.70;99.90
13606;DHT22;6874;52.084;5.090;2023-09-08T09:41:54;20.80;99.90
13606;DHT22;6874;52.084;5.090;2023-09-08T09:44:21;20.90;99.90
13606;DHT22;6874;52.084;5.090;2023-09-08T09:46:47;21.00;99.90
13606;DHT22;6874;52.084;5.090;2023-09-08T09:49:16;21.00;99.90
13606;DHT22;6874;52.084;5.090;2023-09-08T09:51:47;21.10;99.90
13606;DHT22;6874;52.084;5.090;2023-09-08T09:54:13;21.20;99.90
13606;DHT22;6874;52.084;5.090;2023-09-08T09:56:39;21.30;99.90
13606;DHT22;6874;52.084;5.090;2023-09-08T09:59:10;21.40;99.90
13606;DHT22;6874;52.084;5.090;2023-09-08T10:01:37;21.50;99.90
13606;DHT22;6874;52.084;5.090;2023-09-08T10:04:03;21.60;99.90
13606;DHT22;6874;52.084;5.090;2023-09-08T10:06:37;21.80;99.90
13606;DHT22;6874;52.084;5.090;2023-09-08T10:09:05;21.90;99.90
13606;DHT22;6874;52.084;5.090;2023-09-08T10:11:49;22.10;99.90
13606;DHT22;6874;52.084;5.090;2023-09-08T10:14:15;22.30;99.90
13606;DHT22;6874;52.084;5.090;2023-09-08T10:16:44;22.50;99.90
13606;DHT22;6874;52.084;5.090;2023-09-08T10:19:10;22.70;99.90
13606;DHT22;6874;52.084;5.090;2023-09-08T10:21:40;22.80;99.90
13606;DHT22;6874;52.084;5.090;2023-09-08T10:24:15;23.00;99.90
13606;DHT22;6874;52.084;5.090;2023-09-08T10:26:44;23.20;99.90
13606;DHT22;6874;52.084;5.090;2023-09-08T10:29:12;23.40;99.90
13606;DHT22;6874;52.084;5.090;2023-09-08T10:31:39;23.50;99.90
13606;DHT22;6874;52.084;5.090;2023-09-08T10:34:05;23.70;99.90
13606;DHT22;6874;52.084;5.090;2023-09-08T10:36:31;23.80;99.90
13606;DHT22;6874;52.084;5.090;2023-09-08T10:39:32;23.90;99.90
13606;DHT22;6874;52.084;5.090;2023-09-08T10:47:22;24.40;99.90
13606;DHT22;6874;52.084;5.090;2023-09-08T10:49:48;24.50;99.90
13606;DHT22;6874;52.084;5.090;2023-09-08T10:52:15;24.70;99.90
13606;DHT22;6874;52.084;5.090;2023-09-08T10:54:48;24.80;99.90
13606;DHT22;6874;52.084;5.090;2023-09-08T10:57:16;24.90;99.90
13606;DHT22;6874;52.084;5.090;2023-09-08T10:59:55;25.00;99.90
13606;DHT22;6874;52.084;5.090;2023-09-08T11:05:13;25.30;99.90
13606;DHT22;6874;52.084;5.090;2023-09-08T11:07:40;25.40;99.90
13606;DHT22;6874;52.084;5.090;2023-09-08T11:10:07;25.50;99.90
13606;DHT22;6874;52.084;5.090;2023-09-08T11:12:33;25.50;99.90
13606;DHT22;6874;52.084;5.090;2023-09-08T11:15:00;25.70;99.90
13606;DHT22;6874;52.084;5.090;2023-09-08T11:17:35;25.80;99.90
13606;DHT22;6874;52.084;5.090;2023-09-08T11:20:02;25.80;99.90
13606;DHT22;6874;52.084;5.090;2023-09-08T11:22:36;26.00;99.90
13606;DHT22;6874;52.084;5.090;2023-09-08T11:25:02;26.00;99.90
13606;DHT22;6874;52.084;5.090;2023-09-08T11:27:31;26.10;99.90
13606;DHT22;6874;52.084;5.090;2023-09-08T11:29:57;26.20;99.90
13606;DHT22;6874;52.084;5.090;2023-09-08T11:32:32;26.30;99.90
13606;DHT22;6874;52.084;5.090;2023-09-08T11:35:05;26.30;99.90
13606;DHT22;6874;52.084;5.090;2023-09-08T11:37:36;26.40;99.90
13606;DHT22;6874;52.084;5.090;2023-09-08T11:40:01;26.50;99.90
13606;DHT22;6874;52.084;5.090;2023-09-08T11:42:28;26.60;99.90
13606;DHT22;6874;52.084;5.090;2023-09-08T11:44:57;26.60;99.90
13606;DHT22;6874;52.084;5.090;2023-09-08T11:47:23;26.70;99.90
13606;DHT22;6874;52.084;5.090;2023-09-08T11:49:48;26.80;99.90
13606;DHT22;6874;52.084;5.090;2023-09-08T11:52:17;26.90;99.90
13606;DHT22;6874;52.084;5.090;2023-09-08T11:54:43;26.90;99.90
13606;DHT22;6874;52.084;5.090;2023-09-08T11:57:09;27.00;99.90
13606;DHT22;6874;52.084;5.090;2023-09-08T11:59:37;27.10;99.90
13606;DHT22;6874;52.084;5.090;2023-09-08T12:02:03;27.10;99.90
13606;DHT22;6874;52.084;5.090;2023-09-08T12:04:29;27.20;99.90
13606;DHT22;6874;52.084;5.090;2023-09-08T12:06:55;27.30;99.90
13606;DHT22;6874;52.084;5.090;2023-09-08T12:09:23;27.40;99.90
13606;DHT22;6874;52.084;5.090;2023-09-08T12:11:49;27.40;99.90
13606;DHT22;6874;52.084;5.090;2023-09-08T12:14:15;27.50;99.90
13606;DHT22;6874;52.084;5.090;2023-09-08T12:16:41;27.50;99.90
13606;DHT22;6874;52.084;5.090;2023-09-08T12:19:08;27.60;99.90
13606;DHT22;6874;52.084;5.090;2023-09-08T12:21:54;27.70;99.90
13606;DHT22;6874;52.084;5.090;2023-09-08T12:24:51;27.80;99.90
13606;DHT22;6874;52.084;5.090;2023-09-08T12:27:25;27.90;99.90
13606;DHT22;6874;52.084;5.090;2023-09-08T12:29:55;27.90;99.90
13606;DHT22;6874;52.084;5.090;2023-09-08T12:32:22;27.90;99.90
13606;DHT22;6874;52.084;5.090;2023-09-08T12:34:48;28.00;99.90
13606;DHT22;6874;52.084;5.090;2023-09-08T12:37:14;28.10;99.90
13606;DHT22;6874;52.084;5.090;2023-09-08T12:39:39;28.10;99.90
13606;DHT22;6874;52.084;5.090;2023-09-08T12:42:05;28.20;99.90
13606;DHT22;6874;52.084;5.090;2023-09-08T12:44:31;28.20;99.90
13606;DHT22;6874;52.084;5.090;2023-09-08T12:46:56;28.30;99.90
13606;DHT22;6874;52.084;5.090;2023-09-08T12:49:22;28.40;99.90
13606;DHT22;6874;52.084;5.090;2023-09-08T12:51:47;28.40;99.90
13606;DHT22;6874;52.084;5.090;2023-09-08T12:54:13;28.40;99.90
13606;DHT22;6874;52.084;5.090;2023-09-08T12:56:38;28.50;99.90
13606;DHT22;6874;52.084;5.090;2023-09-08T12:59:04;28.50;99.90
13606;DHT22;6874;52.084;5.090;2023-09-08T13:01:29;28.60;99.90
13606;DHT22;6874;52.084;5.090;2023-09-08T13:03:55;28.60;99.90
13606;DHT22;6874;52.084;5.090;2023-09-08T13:06:21;28.70;99.90
13606;DHT22;6874;52.084;5.090;2023-09-08T13:08:46;28.70;99.90
13606;DHT22;6874;52.084;5.090;2023-09-08T13:11:12;28.80;99.90
13606;DHT22;6874;52.084;5.090;2023-09-08T13:13:37;28.80;99.90
13606;DHT22;6874;52.084;5.090;2023-09-08T13:16:03;28.90;99.90
13606;DHT22;6874;52.084;5.090;2023-09-08T13:18:28;29.00;99.90
13606;DHT22;6874;52.084;5.090;2023-09-08T13:21:00;29.00;99.90
13606;DHT22;6874;52.084;5.090;2023-09-08T13:23:26;29.00;99.90
13606;DHT22;6874;52.084;5.090;2023-09-08T13:25:51;29.10;99.90
13606;DHT22;6874;52.084;5.090;2023-09-08T13:28:17;29.10;99.90
13606;DHT22;6874;52.084;5.090;2023-09-08T13:30:43;29.20;99.90
13606;DHT22;6874;52.084;5.090;2023-09-08T13:33:09;29.20;99.90
13606;DHT22;6874;52.084;5.090;2023-09-08T13:35:34;29.30;99.90
13606;DHT22;6874;52.084;5.090;2023-09-08T13:38:00;29.30;99.90
13606;DHT22;6874;52.084;5.090;2023-09-08T13:40:28;29.40;99.90
13606;DHT22;6874;52.084;5.090;2023-09-08T13:42:53;29.40;99.90
13606;DHT22;6874;52.084;5.090;2023-09-08T13:45:19;29.40;99.90
13606;DHT22;6874;52.084;5.090;2023-09-08T13:47:45;29.50;99.90
13606;DHT22;6874;52.084;5.090;2023-09-08T13:50:10;29.50;99.90
13606;DHT22;6874;52.084;5.090;2023-09-08T13:52:36;29.50;99.90
13606;DHT22;6874;52.084;5.090;2023-09-08T13:55:01;29.60;99.90
13606;DHT22;6874;52.084;5.090;2023-09-08T13:57:29;29.60;99.90
13606;DHT22;6874;52.084;5.090;2023-09-08T13:59:54;29.60;99.90
13606;DHT22;6874;52.084;5.090;2023-09-08T14:02:20;29.60;99.90
13606;DHT22;6874;52.084;5.090;2023-09-08T14:04:45;29.70;99.90
13606;DHT22;6874;52.084;5.090;2023-09-08T14:07:11;29.70;99.90
13606;DHT22;6874;52.084;5.090;2023-09-08T14:09:37;29.70;99.90
13606;DHT22;6874;52.084;5.090;2023-09-08T14:12:02;29.70;99.90
13606;DHT22;6874;52.084;5.090;2023-09-08T14:14:28;29.70;99.90
13606;DHT22;6874;52.084;5.090;2023-09-08T14:16:54;29.80;99.90
13606;DHT22;6874;52.084;5.090;2023-09-08T14:19:19;29.80;99.90
13606;DHT22;6874;52.084;5.090;2023-09-08T14:21:45;29.80;99.90
13606;DHT22;6874;52.084;5.090;2023-09-08T14:24:10;29.80;99.90
13606;DHT22;6874;52.084;5.090;2023-09-08T14:26:36;29.90;99.90
13606;DHT22;6874;52.084;5.090;2023-09-08T14:29:02;29.90;99.90
13606;DHT22;6874;52.084;5.090;2023-09-08T14:31:28;29.90;99.90
13606;DHT22;6874;52.084;5.090;2023-09-08T14:33:54;29.90;99.90
13606;DHT22;6874;52.084;5.090;2023-09-08T14:36:20;29.90;99.90
13606;DHT22;6874;52.084;5.090;2023-09-08T14:38:46;29.90;99.90
13606;DHT22;6874;52.084;5.090;2023-09-08T14:41:12;29.90;99.90
13606;DHT22;6874;52.084;5.090;2023-09-08T14:43:38;30.00;99.90
13606;DHT22;6874;52.084;5.090;2023-09-08T14:46:04;30.00;99.90
13606;DHT22;6874;52.084;5.090;2023-09-08T14:48:29;30.00;99.90
13606;DHT22;6874;52.084;5.090;2023-09-08T14:50:56;30.00;99.90
13606;DHT22;6874;52.084;5.090;2023-09-08T14:53:22;30.00;99.90
13606;DHT22;6874;52.084;5.090;2023-09-08T14:55:48;30.00;99.90
13606;DHT22;6874;52.084;5.090;2023-09-08T14:58:16;30.00;99.90
13606;DHT22;6874;52.084;5.090;2023-09-08T15:00:42;30.00;99.90
13606;DHT22;6874;52.084;5.090;2023-09-08T15:03:09;30.00;99.90
13606;DHT22;6874;52.084;5.090;2023-09-08T15:05:35;30.00;99.90
13606;DHT22;6874;52.084;5.090;2023-09-08T15:08:01;30.00;99.90
13606;DHT22;6874;52.084;5.090;2023-09-08T15:10:27;30.10;99.90
13606;DHT22;6874;52.084;5.090;2023-09-08T15:12:53;30.10;99.90
13606;DHT22;6874;52.084;5.090;2023-09-08T15:15:19;30.00;99.90
13606;DHT22;6874;52.084;5.090;2023-09-08T15:17:52;30.10;99.90
13606;DHT22;6874;52.084;5.090;2023-09-08T15:20:18;30.00;99.90
13606;DHT22;6874;52.084;5.090;2023-09-08T15:22:44;30.00;99.90
13606;DHT22;6874;52.084;5.090;2023-09-08T15:25:10;30.00;99.90
13606;DHT22;6874;52.084;5.090;2023-09-08T15:27:36;30.00;99.90
13606;DHT22;6874;52.084;5.090;2023-09-08T15:30:01;30.00;99.90
13606;DHT22;6874;52.084;5.090;2023-09-08T15:32:27;30.00;99.90
13606;DHT22;6874;52.084;5.090;2023-09-08T15:34:53;30.00;99.90
13606;DHT22;6874;52.084;5.090;2023-09-08T15:37:18;29.90;99.90
13606;DHT22;6874;52.084;5.090;2023-09-08T15:39:44;30.00;99.90
13606;DHT22;6874;52.084;5.090;2023-09-08T15:42:12;29.90;99.90
13606;DHT22;6874;52.084;5.090;2023-09-08T15:44:38;29.90;99.90
13606;DHT22;6874;52.084;5.090;2023-09-08T15:47:04;29.90;99.90
13606;DHT22;6874;52.084;5.090;2023-09-08T15:49:29;29.90;99.90
13606;DHT22;6874;52.084;5.090;2023-09-08T15:51:55;29.80;99.90